Arcata, CA (95518)

4:42 AM PDT on August 25, 2016 (GMT -0700)
APRSWXNET | | Change Station

Elev 5 ft 40.86 °N, 124.09 °W | Updated 24 minutes ago

Fog
Fog
50 °F
Feels Like 50 °F
N
2
Wind Variable Wind from East
Gusts 3.0 mph

Today
High -- | Low -- °F
--% Chance of Precip.
Yesterday
High -- | Low -- °F
Precip. -- in
Pressure 29.94 in
Visibility 0.2 miles
Clouds
Dew Point 49 °F
Humidity 98%
Rainfall in
Snow Depth Not available.
6:36 AM 7:58 PM
Last Quarter, 46% visible
SPECI KACV 251134Z AUTO 00000KT 1/4SM R32/1600V2000FT FG VV002 10/10 A2994 RMK AO2 T01000100
Pressure 29.94 in
Visibility 0.2 miles
Clouds
Dew Point 49 °F
Humidity 98%
Rainfall in
Snow Depth Not available.
6:36 AM 7:58 PM
Last Quarter, 46% visible
SPECI KACV 251134Z AUTO 00000KT 1/4SM R32/1600V2000FT FG VV002 10/10 A2994 RMK AO2 T01000100

10-Day Weather Forecast

Almanac

Astronomy

Aug. 25, 2016 Rise Set
Actual Time
Civil Twilight
Nautical Twilight
Astronomical Twilight
Moon
Length of Visible Light
Length of Day
Tomorrow will be .
, % of the Moon is Illuminated

Today's Extremes

State Highs State Lows

Community

WunderPhotos

Upload Photos

1,934,821 photos uploaded!

WunderBlog® & News

Nearby

Air Quality

  Air Quality AQ Index Pollutant
Not available.

Snow Depth

Station Depth Elevation

Earthquake Activity

City Distance Mag. Time & Date
Minimum magnitude displayed is 2.5.

Coastal Water Temperatures

Place Temperature

Stations

Nearby Weather Stations

Station Location Temp. Windchill Dew Point Humidity Wind Precip. Elev Updated Type
                   

Watches & Warnings

There are currently no watches in effect.